Ceylon, Ohio
Current Conditions -  °F | °C
As of 7:53 AM on Wednesday 26 Nov 2014 (Local Time) from KPCW Reporting Station
Overcast Overcast  
Wind Chill: 24°   Ceiling: 2500
Heat Index: 29°   Visibility: 10mi
Dew Point: 22°   Wind: 5mph
Humidity: 75%   Direction: 20°NNE
Pressure: 30.16"   Gusts: NA
Location:  41.3748°N, 82.5554°W
Report Text: KPCW 261253Z AUTO 02004KT 10SM OVC025 M02/M06 A3016 RMK AO2 T10161055 $
Loading
Personal Weather Stations






























Interactive Weather Map New forecast layout! Learn more

10-Day Weather Forecast

Advertisements
Track Severe Weather on mobile